createdAt,value
2022-10-22T00:03:45.861Z,25.477
2022-10-22T00:18:48.083Z,25.249
2022-10-22T00:33:49.949Z,25.638
2022-10-22T00:48:51.777Z,25.701
2022-10-22T01:03:53.639Z,26.077
2022-10-22T01:18:55.497Z,26.12
2022-10-22T01:33:57.402Z,25.949
2022-10-22T01:48:59.270Z,25.544
2022-10-22T02:04:01.197Z,26.151
2022-10-22T02:19:03.372Z,25.941
2022-10-22T02:34:05.248Z,27.16
2022-10-22T02:49:07.202Z,27.681
2022-10-22T03:04:09.093Z,29.224
2022-10-22T03:19:10.949Z,28.998
2022-10-22T03:34:12.860Z,28.728
2022-10-22T03:49:14.712Z,27.795
2022-10-22T04:04:16.616Z,28.166
2022-10-22T04:19:18.737Z,28.49
2022-10-22T04:34:20.661Z,29.063
2022-10-22T04:49:22.612Z,29.098
2022-10-22T05:04:24.511Z,29.195
2022-10-22T05:19:26.414Z,28.806
2022-10-22T05:34:28.453Z,28.887
2022-10-22T05:49:30.406Z,28.18
2022-10-22T06:04:32.326Z,27.998
2022-10-22T06:19:34.431Z,28.104
2022-10-22T06:34:36.371Z,28.651
2022-10-22T06:49:38.315Z,27.523
2022-10-22T07:04:40.348Z,27.817
2022-10-22T07:19:42.322Z,27.511
2022-10-22T07:34:44.233Z,27.167
2022-10-22T07:49:46.171Z,26.679
2022-10-22T08:04:48.282Z,27.508
2022-10-22T08:19:50.300Z,27.455
2022-10-22T08:34:52.206Z,26.932
2022-10-22T08:49:54.104Z,29.233
2022-10-22T09:04:56.025Z,27.582
2022-10-22T09:19:58.020Z,27.7
2022-10-22T09:34:59.933Z,28.201
2022-10-22T09:50:01.971Z,28.332
2022-10-22T10:05:03.909Z,30.041
2022-10-22T10:20:05.876Z,28.421
2022-10-22T10:35:07.780Z,28.619
2022-10-22T10:50:09.667Z,28.633
2022-10-22T11:05:11.620Z,30.445
2022-10-22T11:20:13.559Z,30.672
2022-10-22T11:35:15.525Z,29.401
2022-10-22T11:50:17.457Z,29.494
2022-10-22T12:05:19.356Z,29.824
2022-10-22T12:20:21.329Z,31.422
2022-10-22T12:35:23.261Z,29.799
2022-10-22T12:50:25.167Z,29.663
2022-10-22T13:05:27.076Z,29.808
2022-10-22T13:20:29.099Z,30.168
2022-10-22T13:35:31.131Z,30.875
2022-10-22T13:50:33.033Z,29.861
2022-10-22T14:05:34.950Z,30.205
2022-10-22T14:20:36.920Z,30.303
2022-10-22T14:35:38.825Z,30.58
2022-10-22T14:50:40.732Z,29.748
2022-10-22T15:05:42.668Z,30.251
2022-10-22T15:20:44.680Z,30.228
2022-10-22T15:35:46.592Z,31.666
2022-10-22T15:50:48.517Z,30.163
2022-10-22T16:05:50.401Z,28.302
2022-10-22T16:20:52.297Z,27.92
2022-10-22T16:35:54.239Z,27.561
2022-10-22T16:50:56.254Z,26.739
2022-10-22T17:05:58.304Z,26.718
2022-10-22T17:21:00.244Z,28.029
2022-10-22T17:36:02.172Z,26.787
2022-10-22T17:51:04.144Z,26.129
2022-10-22T18:06:06.136Z,26.047
2022-10-22T18:21:08.061Z,26.219
2022-10-22T18:36:09.983Z,25.896
2022-10-22T18:51:11.931Z,24.548
2022-10-22T19:06:13.889Z,25.369
2022-10-22T19:21:15.827Z,26.511
2022-10-22T19:36:17.762Z,26.472
2022-10-22T19:51:19.614Z,25.634
2022-10-22T20:06:21.516Z,26.086
2022-10-22T20:21:23.461Z,26.014
2022-10-22T20:36:25.392Z,25.646
2022-10-22T20:51:22.459Z,25.29
2022-10-22T21:06:27.376Z,24.262
2022-10-22T21:21:29.222Z,23.8
2022-10-22T21:36:31.051Z,25.094
2022-10-22T21:46:48.890Z,25.474
2022-10-22T22:01:50.796Z,23.374
2022-10-22T22:16:52.664Z,24.337
2022-10-22T22:31:54.543Z,24.8
2022-10-22T22:46:56.396Z,24.707
2022-10-22T22:51:13.473Z,24.628
2022-10-22T23:06:15.359Z,23.423
2022-10-22T23:21:17.224Z,23.356
2022-10-22T23:36:19.163Z,23.778
2022-10-22T23:51:21.026Z,23.933
